Flight Track Log - Related Links

Times and Time Zones

All times are in EDT time to prevent confusion due to time zone crossing. See the N714VH flight status page for this flight to view local times or setup timezone preferences in your user account.


Time Position Orientation Groundspeed Altitude Reporting Facility
EDT Latitude Longitude Course Direction KTS MPH feet Rate Location/Type
Wed 12:35:00 PM 26.5074 -81.7408 70° East  Level Estimated
Wed 12:36:00 PM 26.5254 -81.7258 37° Northeast  Level FlightAware Approximate
Wed 12:37:00 PM 26.5435 -81.7108 37° Northeast  Level FlightAware Approximate
Wed 12:38:00 PM 26.5298 -81.6909 80° East  Level Estimated
Wed 12:39:00 PM 26.5375 -81.6672 70° East  Level FlightAware Approximate
Wed 12:40:00 PM 26.5452 -81.6436 70° East  Level FlightAware Approximate
Wed 12:41:00 PM 26.5529 -81.6199 70° East  Level FlightAware Approximate
Wed 12:41:34 PM 26.6583 -81.5633 70° East 67 77 3,000  Level Miami Center
Wed 12:42:00 PM 26.5606 -81.5962 70° East  Level FlightAware Approximate
Wed 12:42:34 PM 26.6589 -81.5403 88° East 74 85 3,300  Level Miami Center
Wed 12:43:00 PM 26.5683 -81.5725 70° East  Level FlightAware Approximate
Wed 12:43:34 PM 26.6575 -81.5217 95° East 69 79 3,700  Level Miami Center
Wed 12:44:00 PM 26.5760 -81.5489 70° East  Level FlightAware Approximate
Wed 12:44:34 PM 26.6561 -81.4958 93° East 75 86 4,100  Level Miami Center
Wed 12:45:00 PM 26.5836 -81.5252 70° East  Level FlightAware Approximate
Wed 12:45:34 PM 26.6528 -81.4750 100° East 75 86 4,500  Level Miami Center
Wed 12:46:00 PM 26.5913 -81.5015 70° East  Level FlightAware Approximate
Wed 12:46:34 PM 26.6472 -81.4467 102° East 75 86 4,800  Level Miami Center
Wed 12:47:34 PM 26.6481 -81.4258 87° East 89 102 5,000 50 Climbing Miami Center
Wed 12:48:34 PM 26.6467 -81.3981 93° East 95 109 4,900  Descending Miami Center
Wed 12:49:34 PM 26.6478 -81.3678 88° East 84 97 5,000 50 Climbing Miami Center
Wed 12:50:34 PM 26.6464 -81.3422 93° East 84 97 5,000 50 Level Miami Center
Wed 12:51:34 PM 26.6514 -81.3144 79° East 95 109 5,100  Climbing Miami Center
Wed 12:52:34 PM 26.6522 -81.2914 88° East 95 109 5,000 -50 Descending Miami Center
Wed 12:53:34 PM 26.6550 -81.2636 84° East 89 102 5,000 -50 Level Miami Center
Wed 12:54:34 PM 26.6561 -81.2311 88° East 87 100 4,900 -50 Descending Miami Center
Wed 12:55:34 PM 26.6569 -81.2031 88° East 92 106 4,900  Level Miami Center
Wed 12:56:34 PM 26.6597 -81.1778 83° East 87 100 4,900  Level Miami Center
Wed 12:57:34 PM 26.6667 -81.1547 71° East 79 91 4,900 100 Level Miami Center
Wed 12:58:34 PM 26.6697 -81.1269 83° East 79 91 5,100 100 Climbing Miami Center
Wed 12:59:34 PM 26.6661 -81.1014 99° East 74 85 5,100 -50 Level Miami Center
Wed 01:00:34 PM 26.6731 -81.0761 73° East 81 93 5,000 -150 Descending Miami Center
Wed 01:01:34 PM 26.6883 -81.0581 47° Northeast 87 100 4,800 -50 Descending Miami Center
Wed 01:02:34 PM 26.6953 -81.0325 73° East 82 94 4,900 100 Climbing Miami Center
Wed 01:03:34 PM 26.7022 -81.0072 73° East 77 89 5,000  Climbing Miami Center
Wed 01:04:34 PM 26.7072 -80.9797 78° East 83 96 4,900 -50 Descending Miami Center
Wed 01:05:34 PM 26.7142 -80.9519 74° East 88 101 4,900 50 Level Miami Center
Wed 01:06:34 PM 26.7192 -80.9289 76° East 88 101 5,000 50 Climbing Miami Center
Wed 01:07:34 PM 26.7283 -80.8967 72° East 88 101 5,000 -50 Level Miami Center
Wed 01:08:34 PM 26.7353 -80.8736 71° East 88 101 4,900 -50 Descending Miami Center
Wed 01:09:34 PM 26.7403 -80.8436 79° East 88 101 4,900 -50 Level Miami Center
Wed 01:10:34 PM 26.7450 -80.8206 77° East 83 96 4,800 -100 Descending Miami Center
Wed 01:11:34 PM 26.7522 -80.7928 74° East 83 96 4,700 100 Descending Miami Center
Wed 01:12:34 PM 26.7569 -80.7675 78° East 83 96 5,000 100 Climbing Miami Center
Wed 01:13:34 PM 26.7639 -80.7419 73° East 83 96 4,900 -400 Descending Miami Center
Wed 01:14:34 PM 26.7731 -80.7119 71° East 88 101 4,200 -51 Descending Miami Center
Wed 01:16:00 PM 26.7681 -80.6733 81° East  Level FlightAware Approximate
Wed 01:23:00 PM 26.7950 -80.4861 81° East  Level FlightAware Approximate
Wed 01:24:00 PM 26.7989 -80.4594 81° East  Level FlightAware Approximate
Wed 01:25:00 PM 26.8027 -80.4326 81° East  Level FlightAware Approximate
Wed 01:26:00 PM 26.8065 -80.4059 81° East  Level FlightAware Approximate
Wed 01:27:00 PM 26.8103 -80.3791 81° East  Level FlightAware Approximate
Wed 01:28:00 PM 26.8141 -80.3524 81° East  Level FlightAware Approximate
Wed 01:29:00 PM 26.8179 -80.3256 81° East  Level FlightAware Approximate
Wed 01:30:00 PM 26.8217 -80.2989 81° East  Level FlightAware Approximate
Wed 01:31:00 PM 26.8255 -80.2721 81° East  Level FlightAware Approximate
Wed 01:32:00 PM 26.8293 -80.2453 81° East  Level FlightAware Approximate
Wed 01:33:00 PM 26.8331 -80.2186 81° East  Level FlightAware Approximate
Wed 01:34:00 PM 26.8112 -80.2208 189° South  Level FlightAware Approximate
Wed 01:35:00 PM 26.7873 -80.2252 189° South  Level FlightAware Approximate
Wed 01:36:00 PM 26.7635 -80.2296 189° South  Level FlightAware Approximate
Wed 01:37:00 PM 26.7396 -80.2341 189° South  Level FlightAware Approximate
Wed 01:38:00 PM 26.7158 -80.2385 189° South  Level FlightAware Approximate
Wed 01:39:00 PM 26.6919 -80.2429 189° South  Level FlightAware Approximate
Wed 01:40:00 PM 26.6681 -80.2473 189° South  Level FlightAware Approximate
Wed 01:41:00 PM 26.6442 -80.2518 189° South  Level FlightAware Approximate
Wed 01:42:00 PM 26.6204 -80.2562 189° South  Level FlightAware Approximate
Wed 01:43:00 PM 26.5965 -80.2606 189° South  Level FlightAware Approximate
Wed 01:44:00 PM 26.5727 -80.2650 189° South  Level FlightAware Approximate
Wed 01:45:00 PM 26.5488 -80.2694 189° South  Level FlightAware Approximate
Wed 01:46:00 PM 26.5250 -80.2738 189° South  Level FlightAware Approximate
Wed 01:47:00 PM 26.5011 -80.2783 189° South  Level FlightAware Approximate
Wed 01:48:00 PM 26.4773 -80.2827 189° South  Level FlightAware Approximate
Wed 01:49:00 PM 26.4534 -80.2871 189° South  Level FlightAware Approximate
Wed 01:50:00 PM 26.4296 -80.2915 189° South  Level FlightAware Approximate
Wed 01:51:00 PM 26.4057 -80.2959 189° South  Level FlightAware Approximate
Wed 01:52:00 PM 26.3818 -80.3002 188° South  Level FlightAware Approximate
Wed 01:53:00 PM 26.3578 -80.3039 188° South  Level FlightAware Approximate
Wed 01:54:00 PM 26.3339 -80.3075 188° South  Level FlightAware Approximate
Wed 01:55:00 PM 26.3099 -80.3112 188° South  Level FlightAware Approximate
Wed 01:56:00 PM 26.2860 -80.3148 188° South  Level FlightAware Approximate
Wed 01:57:00 PM 26.2620 -80.3184 188° South  Level FlightAware Approximate
Wed 01:58:00 PM 26.2381 -80.3221 188° South  Level FlightAware Approximate
Wed 01:59:00 PM 26.2141 -80.3257 188° South  Level FlightAware Approximate
Wed 02:00:00 PM 26.1901 -80.3294 188° South  Level FlightAware Approximate
Wed 02:01:00 PM 26.1662 -80.3330 188° South  Level FlightAware Approximate
Wed 02:01:05 PM 26.4747 -80.5422 117° Southeast 84 97 2,500  Level Miami Center
Wed 02:01:54 PM 26.4689 -80.5211 107° East 79 91 2,400  Descending Miami Center
Wed 02:02:00 PM 26.1422 -80.3366 188° South  Level FlightAware Approximate
Wed 02:02:55 PM 26.4653 -80.5000 101° East 72 83 2,500  Level Miami Center
Wed 02:03:00 PM 26.1182 -80.3402 188° South  Level FlightAware Approximate
Wed 02:03:56 PM 26.4719 -80.4819 68° East 64 74 2,800  Level Miami Center
Wed 02:04:00 PM 26.0943 -80.3439 188° South  Level FlightAware Approximate
Wed 02:04:57 PM 26.4706 -80.4586 94° East 71 82 3,000  Level Miami Center
Wed 02:05:00 PM 26.0703 -80.3475 188° South  Level FlightAware Approximate
Wed 02:05:57 PM 26.4753 -80.4308 79° East 84 97 3,000  Level Miami Center
Wed 02:06:52 PM 26.4822 -80.4103 69° East 87 100 3,000  Level Miami Center
Wed 02:07:53 PM 26.4892 -80.3825 74° East 87 100 3,000 -49 Level Miami Center
Wed 02:08:54 PM 26.4897 -80.3569 89° East 84 97 2,900  Descending Miami Center
Wed 02:09:55 PM 26.4922 -80.3317 84° East 84 97 3,000  Climbing Miami Center
Wed 02:11:02 PM 26.4825 -80.3033 111° Southeast 80 92 2,900 -94 Descending Miami Center
Wed 02:12:02 PM 26.4728 -80.2775 113° Southeast 87 100 2,800  Descending Miami Center
Wed 02:13:03 PM 26.4669 -80.2542 106° East 76 87 2,900 98 Climbing Miami Center
Wed 02:14:04 PM 26.4592 -80.2308 110° East 101 116 3,000  Climbing Miami Center
Wed 02:15:05 PM 26.4428 -80.2142 138° Southeast 103 119 2,900 -52 Descending Miami Center
Wed 02:16:00 PM 26.4178 -80.2133 178° South 90 104 2,900 49 Level Miami Center
Wed 02:17:07 PM 26.3908 -80.2081 170° South 84 97 3,000 47 Climbing Miami Center
Wed 02:18:08 PM 26.3658 -80.2072 178° South 95 109 3,000  Level Miami Center
Wed 02:19:09 PM 26.3406 -80.2111 188° South 91 105 3,000 -49 Level Miami Center
Wed 02:20:10 PM 26.3156 -80.2081 174° South 99 114 2,900 -49 Descending Miami Center
Wed 02:21:11 PM 26.2906 -80.2097 183° South 85 98 2,900  Level Miami Center
Wed 02:22:12 PM 26.2653 -80.2136 188° South 91 105 2,900 49 Level Miami Center
Wed 02:23:13 PM 26.2361 -80.2131 179° South 86 99 3,000  Climbing Miami Center
Wed 02:24:14 PM 26.2153 -80.2078 167° South 92 106 2,900 -98 Descending Miami Center

Login

Don't have an account? Register now (free) for customized features, flight alerts, and more!